createdAt,value
2022-10-25T00:01:25.742Z,13.66
2022-10-25T00:11:32.087Z,13.55
2022-10-25T00:21:36.008Z,13.53
2022-10-25T00:31:40.127Z,13.58
2022-10-25T00:41:43.680Z,13.58
2022-10-25T00:51:51.197Z,13.51
2022-10-25T01:12:00.087Z,13.28
2022-10-25T01:22:06.874Z,13.13
2022-10-25T01:32:15.213Z,13.08
2022-10-25T01:42:27.063Z,12.99
2022-10-25T01:52:30.983Z,12.89
2022-10-25T02:02:49.896Z,12.88
2022-10-25T02:12:55.891Z,12.81
2022-10-25T02:23:03.063Z,12.80
2022-10-25T02:33:07.674Z,12.82
2022-10-25T02:43:11.104Z,12.83
2022-10-25T02:53:14.681Z,12.75
2022-10-25T03:03:18.257Z,12.70
2022-10-25T03:13:22.807Z,12.72
2022-10-25T03:23:27.097Z,12.72
2022-10-25T03:43:33.923Z,12.85
2022-10-25T03:53:37.705Z,12.90
2022-10-25T04:03:41.160Z,12.86
2022-10-25T04:13:44.636Z,12.72
2022-10-25T04:23:49.166Z,12.57
2022-10-25T04:33:53.857Z,12.41
2022-10-25T04:43:57.526Z,12.32
2022-10-25T04:54:00.985Z,12.23
2022-10-25T05:04:05.005Z,12.13
2022-10-25T05:14:08.620Z,12.10
2022-10-25T05:24:12.253Z,12.03
2022-10-25T05:34:15.695Z,11.97
2022-10-25T05:44:19.735Z,11.99
2022-10-25T05:54:24.367Z,12.11
2022-10-25T06:04:28.182Z,12.28
2022-10-25T06:14:31.635Z,12.42
2022-10-25T06:24:35.060Z,12.52
2022-10-25T06:34:38.825Z,12.65
2022-10-25T06:44:42.480Z,12.92
2022-10-25T06:54:46.042Z,12.92
2022-10-25T07:04:49.596Z,13.53
2022-10-25T07:14:53.143Z,13.94
2022-10-25T07:24:56.779Z,14.03
2022-10-25T07:35:00.676Z,13.93
2022-10-25T07:45:05.666Z,13.72
2022-10-25T07:55:09.054Z,13.64
2022-10-25T08:05:12.816Z,13.68
2022-10-25T08:15:17.693Z,13.72
2022-10-25T08:25:22.533Z,13.84
2022-10-25T08:35:28.736Z,13.89
2022-10-25T08:45:33.350Z,14.09
2022-10-25T08:55:48.574Z,14.52
2022-10-25T09:06:05.848Z,14.75
2022-10-25T09:16:10.417Z,15.49
2022-10-25T09:26:21.075Z,15.92
2022-10-25T09:36:25.629Z,16.39
2022-10-25T09:46:35.641Z,16.62
2022-10-25T09:56:40.112Z,16.40
2022-10-25T10:06:44.609Z,16.20
2022-10-25T10:16:50.882Z,16.19
2022-10-25T10:26:57.921Z,16.35
2022-10-25T10:37:20.970Z,16.35
2022-10-25T10:47:29.465Z,16.46
2022-10-25T10:57:35.478Z,16.62
2022-10-25T11:07:42.903Z,16.90
2022-10-25T11:17:45.573Z,17.25
2022-10-25T11:27:59.210Z,17.71
2022-10-25T11:38:12.370Z,18.16
2022-10-25T11:48:24.451Z,17.76
2022-10-25T11:58:33.408Z,16.82
2022-10-25T12:08:42.449Z,16.37
2022-10-25T12:18:47.014Z,16.23
2022-10-25T12:28:52.317Z,16.53
2022-10-25T12:38:58.962Z,16.37
2022-10-25T12:49:28.295Z,16.57
2022-10-25T12:59:35.752Z,17.04
2022-10-25T13:09:40.702Z,16.90
2022-10-25T13:19:54.866Z,16.78
2022-10-25T13:30:02.957Z,16.64
2022-10-25T13:40:13.502Z,16.25
2022-10-25T13:50:21.525Z,15.90
2022-10-25T14:00:34.280Z,15.75
2022-10-25T14:10:37.923Z,15.60
2022-10-25T14:20:44.762Z,15.53
2022-10-25T14:30:49.514Z,15.73
2022-10-25T14:40:52.673Z,15.70
2022-10-25T14:50:57.965Z,15.50
2022-10-25T15:01:03.564Z,15.14
2022-10-25T15:11:13.900Z,14.81
2022-10-25T15:21:18.993Z,14.49
2022-10-25T15:31:24.526Z,14.25
2022-10-25T15:41:28.800Z,14.06
2022-10-25T15:51:31.509Z,13.88
2022-10-25T16:01:35.375Z,13.63
2022-10-25T16:11:44.864Z,13.54
2022-10-25T16:21:50.856Z,13.48
2022-10-25T16:31:54.666Z,13.43
2022-10-25T16:41:58.714Z,13.37
2022-10-25T16:52:02.231Z,13.24
2022-10-25T17:02:07.496Z,13.18
2022-10-25T17:12:12.550Z,13.15
2022-10-25T17:22:16.093Z,13.18
2022-10-25T17:32:20.235Z,13.17
2022-10-25T17:42:23.830Z,13.17
2022-10-25T17:52:26.956Z,13.11
2022-10-25T18:02:31.265Z,12.87
2022-10-25T18:12:34.925Z,12.63
2022-10-25T18:22:38.518Z,12.34
2022-10-25T18:32:42.346Z,12.17
2022-10-25T18:42:45.920Z,12.06
2022-10-25T18:52:49.092Z,11.93
2022-10-25T19:02:53.549Z,11.82
2022-10-25T19:12:57.025Z,11.74
2022-10-25T19:23:00.518Z,11.67
2022-10-25T19:33:03.645Z,11.58
2022-10-25T19:43:06.770Z,11.48
2022-10-25T19:53:10.289Z,11.49
2022-10-25T20:03:14.116Z,11.48
2022-10-25T20:13:18.110Z,11.46
2022-10-25T20:23:21.923Z,11.36
2022-10-25T20:33:25.645Z,11.23
2022-10-25T20:43:29.249Z,11.07
2022-10-25T20:53:33.553Z,10.87
2022-10-25T21:03:38.042Z,10.72
2022-10-25T21:13:41.857Z,10.65
2022-10-25T21:23:45.800Z,10.71
2022-10-25T21:33:51.310Z,10.91
2022-10-25T21:43:56.744Z,11.10
2022-10-25T21:54:02.424Z,11.25
2022-10-25T22:04:05.347Z,11.37
2022-10-25T22:14:12.040Z,11.43
2022-10-25T22:24:16.161Z,11.27
2022-10-25T22:34:19.873Z,11.05
2022-10-25T22:44:23.618Z,10.83
2022-10-25T22:54:27.375Z,10.67
2022-10-25T23:04:30.873Z,10.57
2022-10-25T23:14:34.554Z,10.35
2022-10-25T23:24:38.070Z,10.19
2022-10-25T23:34:41.244Z,10.04
2022-10-25T23:44:45.244Z,9.89
2022-10-25T23:54:48.788Z,9.86
